Toms River, NJ (08753)

11:28 PM EST on January 20, 2017 (GMT -0500)
Georgetown | | Change Station
Active Advisory: Storm Watch

Elev 33 ft 39.98 °N, 74.16 °W | Updated 40 seconds ago

Overcast
Overcast
42.1 °F
Feels Like 42 °F
N
0.0
Wind Variable Wind from ESE
Gusts 0.0 mph

Today
High -- | Low -- °F
--% Chance of Precip.
Yesterday
High -- | Low -- °F
Precip. -- in
Pressure 29.94 in
Visibility 3.0 miles
Clouds Overcast 2500 ft
Windchill 42 °F
Dew Point 41 °F
Humidity 97%
Rainfall 0.05 in
Snow Depth Not available.
7:14 AM 5:01 PM
Last Quarter, 38% visible
SPECI KMJX 210418Z AUTO 00000KT 3SM BR OVC025 05/04 A2994 RMK AO2 PNO $
Pressure 29.94 in
Visibility 3.0 miles
Clouds Overcast 2500 ft
Windchill 42 °F
Dew Point 41 °F
Humidity 97%
Rainfall 0.05 in
Snow Depth Not available.
7:14 AM 5:01 PM
Last Quarter, 38% visible
SPECI KMJX 210418Z AUTO 00000KT 3SM BR OVC025 05/04 A2994 RMK AO2 PNO $

Get Your Daily Forecast Email!

Thanks for signing up!

Be on the lookout for a verification email in your inbox.

You'll start receiving the daily forecast at 8 AM.

×

10-Day Weather Forecast

Almanac

Astronomy

Jan. 20, 2017 Rise Set
Actual Time
Civil Twilight
Nautical Twilight
Astronomical Twilight
Moon
Length of Visible Light
Length of Day
Tomorrow will be .
, % of the Moon is Illuminated

Today's Extremes

State Highs State Lows

Community

WunderPhotos

Upload Photos

1,962,540 photos uploaded!

WunderBlog® & News

Nearby

Air Quality

  Air Quality AQ Index Pollutant
Not available.

Snow Depth

Station Depth Elevation

Earthquake Activity

City Distance Mag. Time & Date
Minimum magnitude displayed is 2.5.

Coastal Water Temperatures

Place Temperature

Stations

Nearby Weather Stations

Station Location Temp. Windchill Dew Point Humidity Wind Precip. Elev Updated Type
                   

Watches & Warnings

Storm Watch
Issued: 3:35 PM EST Jan. 20, 2017 – National Weather Service

... Storm watch in effect from late Sunday night through Monday
afternoon...

The National Weather Service in Mount Holly has issued a storm
watch... which is in effect from late Sunday night through Monday
afternoon.

* Location... the coastal ocean waters of northern and central New
Jersey.

* Winds... east 30 to 40 kt with gusts up to 60 kt.

* Seas... 11 to 16 feet.

* Timing... winds increase Sunday night... and then the strongest
winds are expected on Monday... possibly lingering into Monday
night.

Precautionary/preparedness actions...

A storm watch is issued when the risk of storm force winds of
48 to 63 knots has significantly increased... but the specific
timing and/or location is still uncertain. It is intended to
provide additional lead time for mariners who may wish to
consider altering their plans.



Mps